Flight Track Log - Related Links

Times and Time Zones

All times are in EDT time to prevent confusion due to time zone crossing. See the TRS886 flight status page for this flight to view local times or setup timezone preferences in your user account.

Time Position Orientation Groundspeed Altitude Reporting Facility
EDT Latitude Longitude Course Direction KTS MPH feet Rate Location/Type
Thu 02:02:42 PM 28.4000 -81.3000 270° West 172 198 1,000  Level Orlando TRACON
Thu 02:03:24 PM 28.3667 -81.3333 221° Southwest 228 262 2,100 2,388 Climbing Orlando TRACON
Thu 02:04:25 PM 28.3667 -81.4000 270° West 276 318 5,100 2,812 Climbing Orlando TRACON
Thu 02:06:51 PM 28.3711 -81.6306 271° West 306 352 11,800 2,301 Climbing Jacksonville Center
Thu 02:07:51 PM 28.3931 -81.7411 283° West 333 383 13,000 1,700 Climbing Jacksonville Center
Thu 02:08:00 PM 28.4167 -82.0465 270° West  Level FlightAware Approximate
Thu 02:08:51 PM 28.4128 -81.8564 281° West 357 411 15,200  Level Jacksonville Center
Thu 02:09:51 PM 28.4369 -81.9908 282° West 383 441 17,600 2,083 Climbing Jacksonville Center
Thu 02:10:52 PM 28.4583 -82.0992 283° West 398 458 19,400 1,850 Climbing Jacksonville Center
Thu 02:11:51 PM 28.4842 -82.2264 283° West 398 458 21,300 1,664 Climbing Jacksonville Center
Thu 02:12:51 PM 28.5306 -82.3419 295° West 403 464 22,700 1,240 Climbing Jacksonville Center
Thu 02:13:52 PM 28.6228 -82.4339 319° Northwest 411 473 23,800 992 Climbing Jacksonville Center
Thu 02:14:52 PM 28.7192 -82.5186 322° Northwest 421 484 24,700 950 Climbing Jacksonville Center
Thu 02:15:52 PM 28.8111 -82.6106 319° Northwest 433 498 25,700 950 Climbing Jacksonville Center
Thu 02:16:52 PM 28.9053 -82.7075 318° Northwest 445 512 26,600 1,000 Climbing Jacksonville Center
Thu 02:17:52 PM 29.0014 -82.8025 319° Northwest 451 519 27,700 1,250 Climbing Jacksonville Center
Thu 02:18:52 PM 29.0953 -82.8903 321° Northwest 451 519 29,100 1,300 Climbing Jacksonville Center
Thu 02:19:52 PM 29.1975 -82.9664 327° Northwest 446 513 30,300 1,150 Climbing Jacksonville Center
Thu 02:20:52 PM 29.2997 -83.0425 327° Northwest 441 507 31,400 850 Climbing Jacksonville Center
Thu 02:21:52 PM 29.4103 -83.1261 327° Northwest 436 502 32,000 300 Climbing Jacksonville Center
Thu 02:22:52 PM 29.5042 -83.1956 327° Northwest 444 511 32,000  Level Jacksonville Center
Thu 02:23:52 PM 29.6125 -83.2772 327° Northwest 436 502 32,000  Level Jacksonville Center
Thu 02:24:51 PM 29.7144 -83.3517 328° Northwest 431 496 32,000  Level Jacksonville Center
Thu 02:25:52 PM 29.8144 -83.4264 327° Northwest 431 496 32,000  Level Jacksonville Center
Thu 02:26:52 PM 29.9164 -83.5036 327° Northwest 436 502 32,000  Level Jacksonville Center
Thu 02:27:52 PM 30.0183 -83.5786 328° Northwest 436 502 32,000  Level Jacksonville Center
Thu 02:28:52 PM 30.1181 -83.6539 327° Northwest 436 502 32,000  Level Jacksonville Center
Thu 02:29:51 PM 30.2200 -83.7292 327° Northwest 436 502 32,000  Level Jacksonville Center
Thu 02:30:52 PM 30.3197 -83.8069 326° Northwest 436 502 32,000  Level Jacksonville Center
Thu 02:31:52 PM 30.4214 -83.8803 328° Northwest 431 496 32,000  Level Jacksonville Center
Thu 02:32:52 PM 30.5231 -83.9561 327° Northwest 431 496 32,000  Level Jacksonville Center
Thu 02:33:52 PM 30.6183 -84.0319 326° Northwest 436 502 32,000  Level Jacksonville Center
Thu 02:34:52 PM 30.7222 -84.1106 327° Northwest 436 502 32,000  Level Jacksonville Center
Thu 02:35:52 PM 30.8258 -84.1917 326° Northwest 436 502 32,000  Level Jacksonville Center
Thu 02:36:52 PM 30.9231 -84.2681 326° Northwest 436 502 32,000  Level Jacksonville Center
Thu 02:37:51 PM 31.0244 -84.3447 327° Northwest 436 502 32,000  Level Jacksonville Center
Thu 02:38:52 PM 31.1258 -84.4264 325° Northwest 436 502 32,000  Level Jacksonville Center
Thu 02:39:52 PM 31.2272 -84.5008 328° Northwest 436 502 32,000  Level Jacksonville Center
Thu 02:41:44 PM 31.4028 -84.6397 326° Northwest 434 499 32,000  Level Atlanta Center
Thu 02:42:44 PM 31.5047 -84.7183 327° Northwest 434 499 32,000  Level Atlanta Center
Thu 02:43:44 PM 31.6025 -84.7972 326° Northwest 434 499 32,000  Level Atlanta Center
Thu 02:44:44 PM 31.7083 -84.8761 328° Northwest 434 499 32,000  Level Atlanta Center
Thu 02:45:44 PM 31.8100 -84.9578 326° Northwest 434 499 32,000  Level Atlanta Center
Thu 02:46:44 PM 31.9136 -85.0419 325° Northwest 439 505 32,000  Level Atlanta Center
Thu 02:47:44 PM 32.0278 -85.1289 327° Northwest 444 511 32,000  Level Atlanta Center
Thu 02:48:44 PM 32.1314 -85.2086 327° Northwest 444 511 32,000  Level Atlanta Center
Thu 02:49:44 PM 32.2328 -85.2886 326° Northwest 438 504 32,000  Level Atlanta Center
Thu 02:50:44 PM 32.3364 -85.3689 327° Northwest 438 504 32,000  Level Atlanta Center
Thu 02:51:44 PM 32.4419 -85.4542 326° Northwest 443 510 32,000  Level Atlanta Center
Thu 02:52:44 PM 32.5411 -85.5319 327° Northwest 443 510 32,000  Level Atlanta Center
Thu 02:53:44 PM 32.6425 -85.6175 325° Northwest 448 516 32,000  Level Atlanta Center
Thu 02:54:44 PM 32.7353 -85.6908 326° Northwest 448 516 32,000  Level Atlanta Center
Thu 02:55:44 PM 32.8386 -85.7744 326° Northwest 448 516 32,000  Level Atlanta Center
Thu 02:56:44 PM 32.9397 -85.8556 326° Northwest 448 516 32,000  Level Atlanta Center
Thu 02:57:44 PM 33.0408 -85.9394 325° Northwest 443 510 32,000  Level Atlanta Center
Thu 02:58:44 PM 33.1458 -86.0211 327° Northwest 449 517 32,000  Level Atlanta Center
Thu 02:59:44 PM 33.2447 -86.1028 325° Northwest 443 510 32,000  Level Atlanta Center
Thu 03:00:44 PM 33.3456 -86.1872 325° Northwest 443 510 32,000  Level Atlanta Center
Thu 03:01:44 PM 33.4483 -86.2719 325° Northwest 448 516 32,000  Level Atlanta Center
Thu 03:02:44 PM 33.5469 -86.3544 325° Northwest 448 516 32,000  Level Atlanta Center
Thu 03:03:44 PM 33.6561 -86.4447 325° Northwest 441 507 32,000  Level Atlanta Center
Thu 03:04:44 PM 33.7567 -86.5300 325° Northwest 441 507 32,000  Level Atlanta Center
Thu 03:05:44 PM 33.8550 -86.6103 326° Northwest 441 507 32,000  Level Atlanta Center
Thu 03:07:20 PM 34.0178 -86.7461 325° Northwest 450 518 32,000  Level Memphis Center
Thu 03:08:20 PM 34.1183 -86.8322 325° Northwest 450 518 32,000  Level Memphis Center
Thu 03:09:20 PM 34.2064 -86.9139 323° Northwest 447 514 32,000  Level Memphis Center
Thu 03:10:20 PM 34.3175 -87.0100 324° Northwest 453 521 32,000  Level Memphis Center
Thu 03:11:21 PM 34.4175 -87.0842 329° Northwest 440 506 32,000  Level Memphis Center
Thu 03:12:20 PM 34.5136 -87.1686 324° Northwest 435 501 32,000  Level Memphis Center
Thu 03:13:20 PM 34.6117 -87.2558 324° Northwest 440 506 32,000  Level Memphis Center
Thu 03:14:20 PM 34.7097 -87.3406 325° Northwest 434 499 32,000  Level Memphis Center
Thu 03:15:20 PM 34.8119 -87.4231 326° Northwest 434 499 32,000  Level Memphis Center
Thu 03:16:20 PM 34.9078 -87.5058 325° Northwest 429 494 32,000  Level Memphis Center
Thu 03:17:21 PM 35.0056 -87.5911 324° Northwest 434 499 32,000  Level Memphis Center
Thu 03:18:21 PM 35.0950 -87.6669 325° Northwest 434 499 32,000  Level Memphis Center
Thu 03:19:20 PM 35.1947 -87.7500 326° Northwest 441 507 32,000  Level Memphis Center
Thu 03:20:20 PM 35.2944 -87.8361 325° Northwest 436 502 32,000  Level Memphis Center
Thu 03:21:20 PM 35.3922 -87.9222 324° Northwest 436 502 32,000  Level Memphis Center
Thu 03:22:20 PM 35.4897 -88.0086 324° Northwest 435 501 32,000  Level Memphis Center
Thu 03:23:20 PM 35.5917 -88.0975 325° Northwest 442 509 32,000  Level Memphis Center
Thu 03:24:20 PM 35.6869 -88.1767 326° Northwest 435 501 32,000  Level Memphis Center
Thu 03:25:20 PM 35.7864 -88.2664 324° Northwest 435 501 32,000  Level Memphis Center
Thu 03:26:20 PM 35.8858 -88.3533 325° Northwest 435 501 32,000  Level Memphis Center
Thu 03:27:20 PM 35.9831 -88.4408 324° Northwest 435 501 32,000  Level Memphis Center
Thu 03:28:21 PM 36.0825 -88.5283 325° Northwest 441 507 32,000  Level Memphis Center
Thu 03:29:20 PM 36.1817 -88.6186 324° Northwest 441 507 32,000  Level Memphis Center
Thu 03:30:20 PM 36.2936 -88.7167 325° Northwest 446 513 32,000  Level Memphis Center
Thu 03:31:20 PM 36.3928 -88.8075 324° Northwest 446 513 32,000  Level Memphis Center
Thu 03:32:20 PM 36.4919 -88.8961 324° Northwest 446 513 32,000  Level Memphis Center
Thu 03:33:20 PM 36.5928 -88.9844 325° Northwest 446 513 32,000  Level Memphis Center
Thu 03:34:20 PM 36.6939 -89.0786 323° Northwest 446 513 32,000  Level Memphis Center
Thu 03:35:20 PM 36.7928 -89.1728 323° Northwest 446 513 32,000  Level Memphis Center
Thu 03:36:20 PM 36.8936 -89.2647 324° Northwest 446 513 32,000 -50 Level Memphis Center
Thu 03:37:20 PM 36.9925 -89.3569 323° Northwest 446 513 31,900 -1,694 Descending Memphis Center
Thu 03:39:49 PM 37.2317 -89.5747 324° Northwest 451 519 26,100 -1,670 Descending Kansas City Center
Thu 03:40:52 PM 37.3444 -89.6369 336° Northwest 447 514 26,000 -240 Descending Kansas City Center
Thu 03:41:54 PM 37.4575 -89.6983 337° Northwest 444 511 25,600 -532 Descending Kansas City Center
Thu 03:42:56 PM 37.5764 -89.7633 337° Northwest 390 449 24,900 -726 Descending Kansas City Center
Thu 03:43:58 PM 37.6692 -89.8128 337° Northwest 378 435 24,100 -871 Descending Kansas City Center
Thu 03:45:00 PM 37.7636 -89.8664 336° Northwest 374 430 23,100 -1,548 Descending Kansas City Center
Thu 03:46:02 PM 37.8703 -89.9231 337° Northwest 366 421 20,900 -1,984 Descending Kansas City Center
Thu 03:47:04 PM 37.9586 -89.9739 336° Northwest 351 404 19,000 -1,935 Descending Kansas City Center
Thu 03:48:06 PM 38.0489 -90.0231 337° Northwest 354 407 16,900 -2,032 Descending Kansas City Center
Thu 03:49:08 PM 38.1458 -90.0786 336° Northwest 361 415 14,800 -1,694 Descending Kansas City Center
Thu 03:50:10 PM 38.2294 -90.1250 336° Northwest 339 390 13,400 -1,597 Descending Kansas City Center
Thu 03:51:12 PM 38.3078 -90.1689 336° Northwest 315 362 11,500 -1,887 Descending Kansas City Center
Thu 03:52:14 PM 38.3856 -90.2119 337° Northwest 308 354 9,500 -1,694 Descending Kansas City Center
Thu 03:53:16 PM 38.4775 -90.2639 336° Northwest 307 353 8,000 -726 Descending Kansas City Center
Thu 03:54:18 PM 38.5539 -90.3072 336° Northwest 303 349 8,000  Level Kansas City Center
Thu 03:55:20 PM 38.6322 -90.3519 336° Northwest 303 349 8,000 -212 Level Kansas City Center
Thu 03:56:11 PM 38.6833 -90.4167 315° West 309 356 7,600 -1,200 Descending Gateway (St. Louis) TRACON
Thu 03:57:05 PM 38.7167 -90.5000 297° West 300 345 5,900 -1,726 Descending Gateway (St. Louis) TRACON
Thu 03:57:24 PM 38.7339 -90.5231 314° West 298 343 5,500 -667 Descending Kansas City Center
Thu 03:58:26 PM 38.7703 -90.6086 299° West 281 323 5,000 -816 Descending Kansas City Center
Thu 03:59:29 PM 38.8244 -90.6081 360° North 242 278 3,800 -960 Descending Kansas City Center
Thu 04:00:31 PM 38.8331 -90.5408 81° East 219 252 3,000 -581 Descending Kansas City Center
Thu 04:01:33 PM 38.8089 -90.4814 118° Southeast 200 230 2,600 -629 Descending Kansas City Center
Thu 04:02:35 PM 38.7847 -90.4311 122° Southeast 175 201 1,700 -774 Descending Kansas City Center
Thu 04:03:37 PM 38.7631 -90.3886 123° Southeast 153 176 1,000 -532 Descending Kansas City Center
Thu 04:04:39 PM 38.7394 -90.3406 122° Southeast 146 168 600 -387 Descending Kansas City Center

Login

Don't have an account? Register now (free) for customized features, flight alerts, and more!